Flight Track Log - Related Links

Times and Time Zones

All times are in EDT time to prevent confusion due to time zone crossing. See the D-AIGN flight status page for this flight to view local times or setup timezone preferences in your user account.

Time Position Orientation Groundspeed Altitude Reporting Facility
EDT Latitude Longitude Course Direction KTS MPH feet Rate Location/Type
Wed 11:08:32 AM 50.0450 8.5860 71° East 143 165 900  Level FlightAware
Wed 11:09:02 AM 50.0520 8.6140 69° East 140 161 1,700 1,309 Climbing FlightAware
Wed 11:09:27 AM 50.0580 8.6410 71° East 166 191 2,100 982 Climbing FlightAware
Wed 11:09:57 AM 50.0650 8.6790 74° East 192 221 2,600 1,000 Climbing FlightAware
Wed 11:10:27 AM 50.0710 8.7220 78° East 226 260 3,100 1,200 Climbing FlightAware
Wed 11:10:52 AM 50.0670 8.7660 98° East 243 280 3,700 1,636 Climbing FlightAware
Wed 11:11:22 AM 50.0610 8.8160 101° East 252 290 4,600 1,745 Climbing FlightAware
Wed 11:11:47 AM 50.0570 8.8630 98° East 264 304 5,300 1,855 Climbing FlightAware
Wed 11:12:17 AM 50.0580 8.9220 88° East 274 315 6,300 2,000 Climbing FlightAware
Wed 11:12:47 AM 50.0580 8.9820 90° East 280 322 7,300 1,745 Climbing FlightAware
Wed 11:13:12 AM 50.0590 9.0310 88° East 289 333 7,900 1,800 Climbing FlightAware
Wed 11:13:27 AM 50.0600 9.0620 87° East 288 331 8,500 2,000 Climbing FlightAware
Wed 11:13:57 AM 50.0610 9.1270 89° East 296 341 9,400 1,629 Climbing FlightAware
Wed 11:14:37 AM 50.0620 9.2110 89° East 308 354 10,400 1,050 Climbing FlightAware
Wed 11:15:17 AM 50.0630 9.3060 89° East 342 394 10,800 1,059 Climbing FlightAware
Wed 11:16:02 AM 50.0650 9.4180 88° East 356 410 11,900 1,482 Climbing FlightAware
Wed 11:16:42 AM 50.0660 9.5210 89° East 365 420 12,900 1,624 Climbing FlightAware
Wed 11:17:27 AM 50.0680 9.6400 88° East 374 430 14,200 1,320 Climbing FlightAware
Wed 11:18:22 AM 50.0640 9.7940 92° East 396 456 15,100 1,074 Climbing FlightAware
Wed 11:19:02 AM 50.0570 9.9100 95° East 407 468 15,900 1,412 Climbing FlightAware
Wed 11:19:47 AM 50.0490 10.0440 95° East 413 475 17,100 1,553 Climbing FlightAware
Wed 11:20:27 AM 50.0410 10.1620 96° East 419 482 18,100 1,412 Climbing FlightAware
Wed 11:21:12 AM 50.0330 10.2960 95° East 429 494 19,100 1,341 Climbing FlightAware
Wed 11:21:52 AM 50.0250 10.4220 96° East 438 504 20,000 1,350 Climbing FlightAware
Wed 11:22:32 AM 50.0170 10.5410 96° East 442 509 20,900 1,412 Climbing FlightAware
Wed 11:23:17 AM 50.0030 10.6870 98° East 442 509 22,000 1,341 Climbing FlightAware
Wed 11:23:57 AM 49.9900 10.8150 99° East 449 517 22,800 1,125 Climbing FlightAware
Wed 11:24:37 AM 49.9770 10.9420 99° East 456 525 23,500 1,059 Climbing FlightAware
Wed 11:25:22 AM 49.9620 11.0860 99° East 462 532 24,300 1,059 Climbing FlightAware
Wed 11:26:02 AM 49.9470 11.2230 100° East 466 536 25,000 1,125 Climbing FlightAware
Wed 11:26:42 AM 49.9330 11.3560 99° East 470 541 25,800 1,059 Climbing FlightAware
Wed 11:27:27 AM 49.9190 11.4900 99° East 474 545 26,500 1,080 Climbing FlightAware
Wed 11:28:22 AM 49.8980 11.6820 100° East 481 554 27,600 1,080 Climbing FlightAware
Wed 11:29:07 AM 49.8810 11.8420 99° East 491 565 28,300 1,271 Climbing FlightAware
Wed 11:29:47 AM 49.8660 11.9730 100° East 491 565 29,400 1,694 Climbing FlightAware
Wed 11:30:32 AM 49.8480 12.1340 100° East 482 555 30,700 1,482 Climbing FlightAware
Wed 11:31:12 AM 49.8330 12.2710 100° East 476 548 31,500 1,280 Climbing FlightAware
Wed 11:31:47 AM 49.8200 12.3840 100° East 472 543 32,300 1,200 Climbing FlightAware
Wed 11:32:37 AM 49.7930 12.5390 105° East 468 539 33,200 1,200 Climbing FlightAware
Wed 11:33:17 AM 49.7610 12.6790 109° East 467 537 34,100 1,050 Climbing FlightAware
Wed 11:33:57 AM 49.7370 12.7900 108° East 469 540 34,600 1,059 Climbing FlightAware
Wed 11:34:42 AM 49.7060 12.9470 107° East 466 536 35,600 1,129 Climbing FlightAware
Wed 11:35:22 AM 49.6810 13.0730 107° East 464 534 36,200 825 Climbing FlightAware
Wed 11:36:02 AM 49.6550 13.2020 107° East 466 536 36,700 600 Climbing FlightAware
Wed 11:36:42 AM 49.6300 13.3230 108° East 470 541 37,000 212 Climbing FlightAware
Wed 11:37:27 AM 49.6000 13.4690 108° East 481 554 37,000  Level FlightAware
Wed 11:38:17 AM 49.5680 13.6210 108° East 482 555 37,000  Level FlightAware
Wed 11:38:57 AM 49.5380 13.7640 108° East 481 554 37,000  Level FlightAware
Wed 11:39:32 AM 49.5160 13.8700 108° East 482 555 37,000  Level FlightAware
Wed 11:40:22 AM 49.4800 14.0420 108° East 483 556 37,000  Level FlightAware
Wed 11:40:57 AM 49.4570 14.1470 109° East 484 557 37,000  Level FlightAware
Wed 11:41:47 AM 49.4210 14.3130 108° East 482 555 37,000  Level FlightAware
Wed 11:42:27 AM 49.3930 14.4430 108° East 482 555 37,000  Level FlightAware
Wed 11:43:07 AM 49.3640 14.5770 108° East 481 554 37,000  Level FlightAware
Wed 11:43:52 AM 49.3330 14.7200 108° East 482 555 37,000  Level FlightAware
Wed 11:44:32 AM 49.3040 14.8490 109° East 481 554 37,000  Level FlightAware
Wed 11:45:12 AM 49.2750 14.9780 109° East 480 552 37,000  Level FlightAware
Wed 11:45:57 AM 49.2430 15.1220 109° East 479 551 37,000  Level FlightAware
Wed 11:46:37 AM 49.2160 15.2440 109° East 477 549 37,000  Level FlightAware
Wed 11:47:22 AM 49.1820 15.3930 109° East 477 549 37,000  Level FlightAware
Wed 11:48:02 AM 49.1530 15.5170 110° East 478 550 37,000  Level FlightAware
Wed 11:48:47 AM 49.1210 15.6580 109° East 478 550 37,000  Level FlightAware
Wed 11:49:27 AM 49.0910 15.7880 109° East 479 551 37,000  Level FlightAware
Wed 11:50:07 AM 49.0620 15.9140 109° East 478 550 37,000  Level FlightAware
Wed 11:50:52 AM 49.0280 16.0600 110° East 477 549 37,000  Level FlightAware
Wed 11:51:32 AM 48.9980 16.1850 110° East 481 554 37,000  Level FlightAware
Wed 11:52:17 AM 48.9650 16.3270 109° East 480 552 37,000  Level FlightAware
Wed 11:52:57 AM 48.9330 16.4580 110° East 479 551 37,000  Level FlightAware
Wed 11:53:37 AM 48.9010 16.5850 111° Southeast 478 550 37,000  Level FlightAware
Wed 11:54:17 AM 48.8650 16.7080 114° Southeast 477 549 37,000  Level FlightAware
Wed 11:55:02 AM 48.8280 16.8380 113° Southeast 476 548 37,000  Level FlightAware
Wed 11:55:47 AM 48.7900 16.9720 113° Southeast 473 544 37,000  Level FlightAware
Wed 11:56:27 AM 48.7540 17.1000 113° Southeast 474 545 37,000  Level FlightAware
Wed 11:57:07 AM 48.7190 17.2200 114° Southeast 477 549 37,000  Level FlightAware
Wed 11:57:47 AM 48.6860 17.3340 114° Southeast 479 551 37,000  Level FlightAware
Wed 11:58:32 AM 48.6450 17.4770 113° Southeast 479 551 37,000  Level FlightAware
Wed 11:59:17 AM 48.6050 17.6110 114° Southeast 477 549 37,000  Level FlightAware
Wed 11:59:47 AM 48.5770 17.7080 114° Southeast 477 549 37,000  Level FlightAware
Wed 12:00:27 PM 48.5410 17.8310 114° Southeast 478 550 37,000  Level FlightAware
Wed 12:01:22 PM 48.4900 18.0010 114° Southeast 478 550 37,000  Level FlightAware
Wed 12:02:02 PM 48.4550 18.1190 114° Southeast 478 550 37,000  Level FlightAware
Wed 12:02:42 PM 48.4170 18.2450 114° Southeast 480 552 37,000  Level FlightAware
Wed 12:03:27 PM 48.3770 18.3800 114° Southeast 481 554 37,000  Level FlightAware
Wed 12:04:07 PM 48.3390 18.5030 115° Southeast 481 554 37,000  Level FlightAware
Wed 12:04:52 PM 48.2990 18.6350 114° Southeast 480 552 37,000  Level FlightAware
Wed 12:05:32 PM 48.2610 18.7590 115° Southeast 481 554 37,000  Level FlightAware
Wed 12:06:17 PM 48.2200 18.8920 115° Southeast 481 554 37,000  Level FlightAware
Wed 12:06:57 PM 48.1820 19.0140 115° Southeast 482 555 37,000  Level FlightAware
Wed 12:07:37 PM 48.1450 19.1350 115° Southeast 482 555 37,000  Level FlightAware
Wed 12:08:22 PM 48.1020 19.2730 115° Southeast 480 552 37,000  Level FlightAware
Wed 12:09:02 PM 48.0650 19.3910 115° Southeast 480 552 37,000  Level FlightAware
Wed 12:09:47 PM 48.0210 19.5280 116° Southeast 482 555 37,000 141 Level FlightAware
Wed 12:10:27 PM 47.9830 19.6480 115° Southeast 481 554 37,200 375 Climbing FlightAware
Wed 12:11:07 PM 47.9460 19.7650 115° Southeast 483 556 37,500 635 Climbing FlightAware
Wed 12:11:52 PM 47.9020 19.9010 116° Southeast 480 552 38,100 847 Climbing FlightAware
Wed 12:12:32 PM 47.8640 20.0210 115° Southeast 478 550 38,700 635 Climbing FlightAware
Wed 12:13:17 PM 47.8220 20.1500 116° Southeast 476 548 39,000 212 Climbing FlightAware
Wed 12:13:57 PM 47.7830 20.2700 116° Southeast 480 552 39,000  Level FlightAware
Wed 12:14:37 PM 47.7430 20.3920 116° Southeast 479 551 39,000  Level FlightAware
Wed 12:15:22 PM 47.7010 20.5200 116° Southeast 477 549 39,000  Level FlightAware
Wed 12:16:02 PM 47.6620 20.6370 116° Southeast 477 549 39,000  Level FlightAware
Wed 12:16:42 PM 47.6230 20.7560 116° Southeast 478 550 39,000  Level FlightAware
Wed 12:17:27 PM 47.5800 20.8850 116° Southeast 475 547 39,000  Level FlightAware
Wed 12:18:07 PM 47.5410 21.0010 116° Southeast 472 543 39,000  Level FlightAware
Wed 12:18:52 PM 47.4960 21.1340 117° Southeast 470 541 39,000  Level FlightAware
Wed 12:19:32 PM 47.4590 21.2440 116° Southeast 469 540 39,000  Level FlightAware
Wed 12:20:12 PM 47.4200 21.3610 116° Southeast 469 540 39,000  Level FlightAware
Wed 12:21:12 PM 47.3620 21.5300 117° Southeast 471 542 39,000  Level FlightAware
Wed 12:21:42 PM 47.3330 21.6140 117° Southeast 471 542 39,000  Level FlightAware
Wed 12:22:42 PM 47.2750 21.7830 117° Southeast 472 543 39,000  Level FlightAware
Wed 12:23:27 PM 47.2350 21.9120 115° Southeast 471 542 39,000  Level FlightAware
Wed 12:24:12 PM 47.2010 22.0470 110° East 476 548 39,000  Level FlightAware
Wed 12:24:47 PM 47.1740 22.1550 110° East 477 549 39,000  Level FlightAware
Wed 12:25:37 PM 47.1360 22.3070 110° East 476 548 39,000  Level FlightAware
Wed 12:26:32 PM 47.0900 22.4690 113° Southeast 473 544 39,000  Level FlightAware
Wed 12:27:12 PM 47.0480 22.5860 118° Southeast 473 544 39,000  Level FlightAware
Wed 12:27:52 PM 47.0110 22.6900 118° Southeast 475 547 39,000  Level FlightAware
Wed 12:28:37 PM 46.9590 22.8360 118° Southeast 479 551 39,000  Level FlightAware
Wed 12:29:12 PM 46.9230 22.9380 117° Southeast 481 554 39,000  Level FlightAware
Wed 12:29:57 PM 46.8750 23.0700 118° Southeast 482 555 39,000  Level FlightAware
Wed 12:30:42 PM 46.8280 23.2000 118° Southeast 482 555 39,000  Level FlightAware
Wed 12:31:22 PM 46.7870 23.3140 118° Southeast 481 554 39,000  Level FlightAware
Wed 12:32:07 PM 46.7410 23.4410 118° Southeast 478 550 39,000  Level FlightAware
Wed 12:32:42 PM 46.7090 23.5290 118° Southeast 474 545 39,000  Level FlightAware
Wed 12:33:32 PM 46.6570 23.6710 118° Southeast 473 544 39,000  Level FlightAware
Wed 12:34:12 PM 46.6150 23.7830 119° Southeast 474 545 39,000  Level FlightAware
Wed 12:34:52 PM 46.5740 23.8940 118° Southeast 476 548 39,000  Level FlightAware
Wed 12:35:37 PM 46.5250 24.0270 118° Southeast 476 548 39,000  Level FlightAware
Wed 12:36:17 PM 46.4840 24.1370 118° Southeast 473 544 39,000  Level FlightAware
Wed 12:37:02 PM 46.4370 24.2630 118° Southeast 472 543 39,000  Level FlightAware
Wed 12:37:42 PM 46.3980 24.3660 119° Southeast 473 544 39,000  Level FlightAware
Wed 12:38:22 PM 46.3520 24.4860 119° Southeast 474 545 39,000  Level FlightAware
Wed 12:39:07 PM 46.3060 24.6080 119° Southeast 474 545 39,000  Level FlightAware
Wed 12:39:47 PM 46.2610 24.7250 119° Southeast 471 542 39,000  Level FlightAware
Wed 12:40:32 PM 46.2210 24.8300 119° Southeast 472 543 39,000  Level FlightAware
Wed 12:41:12 PM 46.1760 24.9480 119° Southeast 471 542 39,000  Level FlightAware
Wed 12:41:57 PM 46.1340 25.0550 119° Southeast 470 541 39,000  Level FlightAware
Wed 12:42:37 PM 46.0880 25.1740 119° Southeast 470 541 39,000  Level FlightAware
Wed 12:43:17 PM 46.0480 25.2770 119° Southeast 471 542 39,000  Level FlightAware
Wed 12:44:02 PM 46.0000 25.4000 119° Southeast 472 543 39,000  Level FlightAware
Wed 12:44:42 PM 45.9550 25.5140 120° Southeast 472 543 39,000  Level FlightAware
Wed 12:45:22 PM 45.9140 25.6190 119° Southeast 473 544 39,000  Level FlightAware
Wed 12:46:07 PM 45.8630 25.7480 120° Southeast 474 545 39,000  Level FlightAware
Wed 12:46:32 PM 45.8360 25.8140 120° Southeast 475 547 39,000  Level FlightAware
Wed 12:47:27 PM 45.7790 25.9580 120° Southeast 477 549 39,000  Level FlightAware
Wed 12:48:12 PM 45.7260 26.0890 120° Southeast 479 551 39,000  Level FlightAware
Wed 12:48:52 PM 45.6810 26.2000 120° Southeast 478 550 39,000  Level FlightAware
Wed 12:49:27 PM 45.6440 26.2920 120° Southeast 476 548 39,000  Level FlightAware
Wed 12:50:32 PM 45.5720 26.4710 120° Southeast 474 545 39,000  Level FlightAware
Wed 12:51:07 PM 45.5320 26.5690 120° Southeast 473 544 39,000  Level FlightAware
Wed 12:51:57 PM 45.4790 26.6960 121° Southeast 472 543 39,000  Level FlightAware
Wed 12:52:37 PM 45.4330 26.8080 120° Southeast 470 541 39,000  Level FlightAware
Wed 12:53:22 PM 45.3840 26.9280 120° Southeast 465 535 39,000  Level FlightAware
Wed 12:53:57 PM 45.3450 27.0210 121° Southeast 463 533 39,000  Level FlightAware
Wed 12:54:37 PM 45.3030 27.1210 121° Southeast 460 529 39,000  Level FlightAware
Wed 12:55:27 PM 45.2520 27.2430 121° Southeast 460 529 39,000  Level FlightAware
Wed 12:56:07 PM 45.2060 27.3530 121° Southeast 461 531 39,000  Level FlightAware
Wed 12:56:42 PM 45.1670 27.4450 121° Southeast 462 532 39,000  Level FlightAware
Wed 12:57:32 PM 45.1130 27.5740 121° Southeast 465 535 39,000  Level FlightAware
Wed 12:58:12 PM 45.0680 27.6800 121° Southeast 465 535 39,000  Level FlightAware
Wed 12:58:47 PM 45.0300 27.7680 121° Southeast 465 535 39,000  Level FlightAware
Wed 12:59:37 PM 44.9760 27.8950 121° Southeast 467 537 39,000  Level FlightAware
Wed 01:00:17 PM 44.9310 28.0000 121° Southeast 468 539 39,000  Level FlightAware
Wed 01:01:07 PM 44.8750 28.1300 121° Southeast 469 540 39,000  Level FlightAware
Wed 01:01:47 PM 44.8280 28.2370 122° Southeast 470 541 39,000  Level FlightAware
Wed 01:02:27 PM 44.7850 28.3370 121° Southeast 471 542 39,000  Level FlightAware
Wed 01:03:12 PM 44.7310 28.4590 122° Southeast 473 544 39,000  Level FlightAware
Wed 01:03:47 PM 44.6900 28.5530 122° Southeast 474 545 39,000  Level FlightAware
Wed 01:04:37 PM 44.6350 28.6780 122° Southeast 475 547 39,000  Level FlightAware
Wed 01:05:17 PM 44.5870 28.7880 121° Southeast 475 547 39,000  Level FlightAware
Wed 01:05:57 PM 44.5420 28.8880 122° Southeast 475 547 39,000  Level FlightAware
Wed 01:06:37 PM 44.4940 28.9960 122° Southeast 474 545 39,000  Level FlightAware
Wed 01:07:12 PM 44.4510 29.0930 122° Southeast 474 545 39,000  Level FlightAware
Wed 01:08:07 PM 44.3900 29.2290 122° Southeast 474 545 39,000  Level FlightAware
Wed 01:08:47 PM 44.3410 29.3370 122° Southeast 472 543 39,000  Level FlightAware
Wed 01:09:27 PM 44.2950 29.4390 122° Southeast 470 541 39,000  Level FlightAware
Wed 01:10:02 PM 44.2580 29.5210 122° Southeast 471 542 39,000  Level FlightAware
Wed 01:10:42 PM 44.2080 29.6310 122° Southeast 470 541 39,000  Level FlightAware
Wed 01:11:32 PM 44.1860 29.6780 123° Southeast 470 541 39,000  Level FlightAware
Wed 01:12:17 PM 44.0940 29.8800 122° Southeast 472 543 39,000  Level FlightAware
Wed 01:12:57 PM 44.0520 29.9710 123° Southeast 473 544 39,000  Level FlightAware
Wed 01:13:37 PM 44.0010 30.0800 123° Southeast 474 545 39,000  Level FlightAware
Wed 01:14:17 PM 43.9530 30.1850 122° Southeast 474 545 39,000  Level FlightAware
Wed 01:15:07 PM 43.8980 30.3030 123° Southeast 473 544 39,000  Level FlightAware
Wed 01:15:37 PM 43.8630 30.3780 123° Southeast 471 542 39,000  Level FlightAware
Wed 01:16:27 PM 43.8020 30.5190 121° Southeast 466 536 39,000  Level FlightAware
Wed 01:17:22 PM 43.7600 30.6710 111° Southeast 463 533 39,000  Level FlightAware
Wed 01:18:07 PM 43.7290 30.7930 109° East 461 531 39,000  Level FlightAware
Wed 01:18:47 PM 43.7000 30.9020 110° East 459 528 39,000  Level FlightAware
Wed 01:19:32 PM 43.6690 31.0220 110° East 457 526 39,000  Level FlightAware
Wed 01:20:12 PM 43.6380 31.1340 111° Southeast 459 528 39,000  Level FlightAware
Wed 01:20:57 PM 43.6060 31.2490 111° Southeast 461 531 39,000  Level FlightAware
Wed 01:21:32 PM 43.5790 31.3500 110° East 460 529 39,000  Level FlightAware
Wed 01:22:22 PM 43.5410 31.4870 111° Southeast 459 528 39,000  Level FlightAware
Wed 01:23:02 PM 43.5110 31.5930 111° Southeast 459 528 39,000  Level FlightAware
Wed 01:23:42 PM 43.4780 31.7110 111° Southeast 458 527 39,000  Level FlightAware
Wed 01:24:22 PM 43.4470 31.8190 112° Southeast 458 527 39,000  Level FlightAware
Wed 01:25:07 PM 43.4110 31.9350 113° Southeast 457 526 39,000  Level FlightAware
Wed 01:25:47 PM 43.3770 32.0450 113° Southeast 458 527 39,000  Level FlightAware
Wed 01:26:32 PM 43.3390 32.1650 113° Southeast 458 527 39,000  Level FlightAware
Wed 01:27:12 PM 43.3060 32.2720 113° Southeast 458 527 39,000  Level FlightAware
Wed 01:27:57 PM 43.2720 32.3940 111° Southeast 455 524 39,000  Level FlightAware
Wed 01:28:47 PM 43.2930 32.3150 290° West 453 521 39,000  Level FlightAware
Wed 01:29:32 PM 43.2070 32.6400 110° East 452 520 39,000  Level FlightAware
Wed 01:30:12 PM 43.1750 32.7580 110° East 450 518 39,000  Level FlightAware
Wed 01:30:57 PM 43.1430 32.8780 110° East 450 518 39,000  Level FlightAware
Wed 01:31:37 PM 43.1140 32.9860 110° East 451 519 39,000  Level FlightAware
Wed 01:32:22 PM 43.0800 33.1030 112° Southeast 452 520 39,000  Level FlightAware
Wed 01:33:02 PM 43.0470 33.2100 113° Southeast 452 520 39,000  Level FlightAware
Wed 01:33:42 PM 43.0150 33.3170 112° Southeast 452 520 39,000  Level FlightAware
Wed 01:34:27 PM 42.9810 33.4290 113° Southeast 452 520 39,000  Level FlightAware
Wed 01:35:07 PM 42.9480 33.5410 112° Southeast 452 520 39,000  Level FlightAware
Wed 01:35:52 PM 42.9120 33.6580 113° Southeast 452 520 39,000  Level FlightAware
Wed 01:36:32 PM 42.8800 33.7630 113° Southeast 451 519 39,000  Level FlightAware
Wed 01:37:17 PM 42.8440 33.8820 112° Southeast 451 519 39,000  Level FlightAware
Wed 01:37:57 PM 42.8140 33.9760 113° Southeast 453 521 39,000  Level FlightAware
Wed 01:38:37 PM 42.7670 34.0830 121° Southeast 457 526 39,000  Level FlightAware
Wed 01:39:17 PM 42.7120 34.1730 130° Southeast 461 531 39,000  Level FlightAware
Wed 01:40:02 PM 42.6450 34.2640 135° Southeast 460 529 39,000  Level FlightAware
Wed 01:40:37 PM 42.6000 34.3270 134° Southeast 460 529 39,000  Level FlightAware
Wed 01:41:52 PM 42.5620 34.3800 134° Southeast 460 529 39,000  Level FlightAware
Wed 01:42:32 PM 42.5120 34.4510 134° Southeast 460 529 39,000  Level FlightAware
Wed 01:43:12 PM 42.4620 34.5220 134° Southeast 460 529 39,000  Level FlightAware
Wed 01:44:02 PM 42.3990 34.6100 134° Southeast 460 529 39,000  Level FlightAware
Wed 01:44:42 PM 42.3480 34.6800 135° Southeast 460 529 39,000  Level FlightAware
Wed 01:45:22 PM 42.2980 34.7510 134° Southeast 460 529 39,000  Level FlightAware
Wed 01:46:07 PM 42.0860 34.9950 139° Southeast 465 535 39,000  Level FlightAware
Wed 01:46:42 PM 42.0370 35.0590 136° Southeast 465 535 39,000  Level FlightAware
Wed 01:47:27 PM 41.9770 35.1410 135° Southeast 465 535 39,000  Level FlightAware
Wed 01:48:07 PM 41.9250 35.2110 135° Southeast 465 535 39,000  Level FlightAware
Wed 01:48:57 PM 41.8600 35.2970 135° Southeast 465 535 39,000  Level FlightAware
Wed 01:49:37 PM 41.8090 35.3670 134° Southeast 465 535 39,000  Level FlightAware
Wed 01:50:17 PM 41.7570 35.4360 135° Southeast 465 535 39,000  Level FlightAware
Wed 01:50:57 PM 41.7050 35.5050 135° Southeast 465 535 39,000  Level FlightAware
Wed 01:51:37 PM 41.6530 35.5750 135° Southeast 465 535 39,000  Level FlightAware
Wed 01:52:27 PM 41.5890 35.6610 135° Southeast 465 535 39,000  Level FlightAware
Wed 01:53:07 PM 41.5370 35.7300 135° Southeast 465 535 39,000  Level FlightAware
Wed 01:53:47 PM 41.4850 35.7990 135° Southeast 465 535 39,000  Level FlightAware
Wed 01:54:27 PM 41.4330 35.8680 135° Southeast 465 535 39,000  Level FlightAware
Wed 01:55:07 PM 41.3820 35.9370 135° Southeast 465 535 39,000  Level FlightAware
Wed 01:55:47 PM 41.3300 36.0060 135° Southeast 465 535 39,000  Level FlightAware
Wed 01:56:37 PM 41.2650 36.0920 135° Southeast 465 535 39,000  Level FlightAware
Wed 01:59:00 PM 41.0491 36.3536 138° Southeast  Level Estimated
Wed 02:00:00 PM 40.9584 36.4629 138° Southeast  Level Estimated
Wed 02:01:00 PM 40.8675 36.5718 138° Southeast  Level Estimated
Wed 02:02:00 PM 40.7765 36.6805 138° Southeast  Level Estimated
Wed 02:03:00 PM 40.6855 36.7889 138° Southeast  Level Estimated
Wed 02:04:00 PM 40.5943 36.8970 138° Southeast  Level Estimated
Wed 02:05:00 PM 40.5031 37.0047 138° Southeast  Level Estimated
Wed 02:06:00 PM 40.4117 37.1122 138° Southeast  Level Estimated
Wed 02:07:00 PM 40.3202 37.2194 138° Southeast  Level Estimated
Wed 02:08:00 PM 40.2287 37.3263 138° Southeast  Level Estimated
Wed 02:09:00 PM 40.1370 37.4329 138° Southeast  Level Estimated
Wed 02:10:00 PM 40.0453 37.5392 138° Southeast  Level Estimated
Wed 02:11:00 PM 39.9534 37.6453 138° Southeast  Level Estimated
Wed 02:12:00 PM 39.8615 37.7510 139° Southeast  Level Estimated
Wed 02:13:00 PM 39.7694 37.8565 139° Southeast  Level Estimated
Wed 02:14:00 PM 39.6773 37.9617 139° Southeast  Level Estimated
Wed 02:15:00 PM 39.5850 38.0666 139° Southeast  Level Estimated
Wed 02:16:00 PM 39.4927 38.1712 139° Southeast  Level Estimated
Wed 02:17:00 PM 39.4003 38.2756 139° Southeast  Level Estimated
Wed 02:18:00 PM 39.3078 38.3797 139° Southeast  Level Estimated
Wed 02:19:00 PM 39.2151 38.4835 139° Southeast  Level Estimated
Wed 02:20:00 PM 39.1225 38.5870 139° Southeast  Level Estimated
Wed 02:21:00 PM 39.0297 38.6903 139° Southeast  Level Estimated
Wed 02:22:00 PM 38.9368 38.7933 139° Southeast  Level Estimated
Wed 02:23:00 PM 38.8438 38.8960 139° Southeast  Level Estimated
Wed 02:24:00 PM 38.7508 38.9984 139° Southeast  Level Estimated
Wed 02:25:00 PM 38.6576 39.1006 139° Southeast  Level Estimated
Wed 02:26:00 PM 38.5644 39.2025 139° Southeast  Level Estimated
Wed 02:27:00 PM 38.4710 39.3042 140° Southeast  Level Estimated
Wed 02:28:00 PM 38.3776 39.4056 140° Southeast  Level Estimated
Wed 02:29:00 PM 38.2841 39.5067 140° Southeast  Level Estimated
Wed 02:30:00 PM 38.1905 39.6076 140° Southeast  Level Estimated
Wed 02:31:00 PM 38.0968 39.7082 140° Southeast  Level Estimated
Wed 02:32:00 PM 38.0031 39.8085 140° Southeast  Level Estimated
Wed 02:33:00 PM 37.9092 39.9086 140° Southeast  Level Estimated
Wed 02:34:00 PM 37.8153 40.0085 140° Southeast  Level Estimated
Wed 02:35:00 PM 37.7213 40.1080 140° Southeast  Level Estimated
Wed 02:36:00 PM 37.6272 40.2074 140° Southeast  Level Estimated
Wed 02:37:00 PM 37.5330 40.3064 140° Southeast  Level Estimated
Wed 02:38:00 PM 37.4387 40.4053 140° Southeast  Level Estimated
Wed 02:39:00 PM 37.3444 40.5039 140° Southeast  Level Estimated
Wed 02:39:52 PM 38.1310 42.2010 140° Southeast 461 531 39,000  Level FlightAware
Wed 02:40:00 PM 37.2500 40.6022 140° Southeast  Level Estimated
Wed 02:40:32 PM 38.0800 42.2880 127° Southeast 460 529 39,000  Level FlightAware
Wed 02:41:17 PM 38.0220 42.3860 127° Southeast 459 528 39,000  Level FlightAware
Wed 02:41:57 PM 37.9700 42.4740 127° Southeast 459 528 39,000  Level FlightAware
Wed 02:42:42 PM 37.9140 42.5670 127° Southeast 459 528 39,000  Level FlightAware
Wed 02:43:22 PM 37.8610 42.6500 129° Southeast 458 527 39,000  Level FlightAware
Wed 02:44:02 PM 37.7990 42.7230 137° Southeast 456 525 39,000  Level FlightAware
Wed 02:44:47 PM 37.7290 42.8020 138° Southeast 458 527 39,000  Level FlightAware
Wed 02:45:27 PM 37.6650 42.8730 139° Southeast 457 526 39,000  Level FlightAware
Wed 02:46:12 PM 37.5920 42.9530 139° Southeast 458 527 39,000  Level FlightAware
Wed 02:46:52 PM 37.5290 43.0220 139° Southeast 460 529 39,000  Level FlightAware
Wed 02:47:32 PM 37.4630 43.0930 139° Southeast 460 529 39,000  Level FlightAware
Wed 02:48:17 PM 37.3890 43.1720 140° Southeast 461 531 39,000  Level FlightAware
Wed 02:48:57 PM 37.3170 43.2300 147° Southeast 460 529 39,000  Level FlightAware
Wed 02:49:42 PM 37.2330 43.2800 155° Southeast 460 529 39,000  Level FlightAware
Wed 02:50:22 PM 37.1560 43.3260 155° Southeast 459 528 39,000  Level FlightAware
Wed 02:51:02 PM 37.0780 43.3700 156° South 460 529 39,000  Level FlightAware
Wed 02:51:47 PM 36.9930 43.4180 156° South 459 528 39,000  Level FlightAware
Wed 02:52:27 PM 36.9120 43.4630 156° South 458 527 39,000  Level FlightAware
Wed 02:53:07 PM 36.8340 43.5070 156° South 456 525 39,000  Level FlightAware
Wed 02:53:52 PM 36.7490 43.5540 156° South 455 524 39,000  Level FlightAware
Wed 02:54:32 PM 36.6730 43.5950 157° South 454 522 39,000  Level FlightAware
Wed 02:55:12 PM 36.5950 43.6350 158° South 453 521 39,000  Level FlightAware
Wed 02:55:57 PM 36.5090 43.6790 158° South 453 521 39,000  Level FlightAware
Wed 02:56:37 PM 36.4300 43.7210 157° South 452 520 39,000  Level FlightAware
Wed 02:57:22 PM 36.3440 43.7650 158° South 450 518 39,000  Level FlightAware
Wed 02:58:02 PM 36.2670 43.8050 157° South 444 511 39,000  Level FlightAware
Wed 02:58:47 PM 36.1810 43.8500 157° South 443 510 39,000  Level FlightAware
Wed 02:59:32 PM 36.0980 43.8940 157° South 443 510 39,000  Level FlightAware
Wed 03:00:12 PM 36.0240 43.9330 157° South 442 509 39,000  Level FlightAware
Wed 03:00:52 PM 35.9470 43.9720 158° South 444 511 39,000  Level FlightAware
Wed 03:01:37 PM 35.8610 44.0170 157° South 447 514 39,000  Level FlightAware
Wed 03:02:17 PM 35.7840 44.0580 157° South 448 516 39,000  Level FlightAware
Wed 03:03:02 PM 35.6980 44.1020 157° South 451 519 39,000  Level FlightAware
Wed 03:03:42 PM 35.6220 44.1410 157° South 453 521 39,000  Level FlightAware
Wed 03:04:22 PM 35.5450 44.1820 157° South 452 520 39,000  Level FlightAware
Wed 03:05:07 PM 35.4570 44.2270 157° South 450 518 39,000  Level FlightAware
Wed 03:05:47 PM 35.3790 44.2670 157° South 449 517 39,000  Level FlightAware
Wed 03:06:27 PM 35.3050 44.3050 157° South 450 518 39,000  Level FlightAware
Wed 03:07:12 PM 35.2160 44.3480 158° South 449 517 39,000  Level FlightAware
Wed 03:07:52 PM 35.1390 44.3830 160° South 449 517 39,000  Level FlightAware
Wed 03:08:37 PM 35.0550 44.4220 159° South 450 518 39,000  Level FlightAware
Wed 03:09:17 PM 34.9750 44.4590 159° South 451 519 39,000  Level FlightAware
Wed 03:10:02 PM 34.8860 44.5000 159° South 451 519 39,000  Level FlightAware
Wed 03:10:42 PM 34.8120 44.5520 150° Southeast 453 521 39,000  Level FlightAware
Wed 03:11:22 PM 34.7410 44.6040 149° Southeast 453 521 39,000  Level FlightAware
Wed 03:12:07 PM 34.6590 44.6630 149° Southeast 451 519 39,000  Level FlightAware
Wed 03:12:47 PM 34.5870 44.7160 149° Southeast 451 519 39,000  Level FlightAware
Wed 03:13:32 PM 34.5080 44.7730 149° Southeast 450 518 39,000  Level FlightAware
Wed 03:14:12 PM 34.4370 44.8240 149° Southeast 451 519 39,000  Level FlightAware
Wed 03:14:52 PM 34.3650 44.8760 149° Southeast 452 520 39,000  Level FlightAware
Wed 03:15:37 PM 34.2830 44.9350 149° Southeast 453 521 39,000  Level FlightAware
Wed 03:16:17 PM 34.2130 44.9850 149° Southeast 454 522 39,000  Level FlightAware
Wed 03:16:57 PM 34.1380 45.0380 150° Southeast 454 522 39,000  Level FlightAware
Wed 03:17:42 PM 34.0590 45.0950 149° Southeast 454 522 39,000  Level FlightAware
Wed 03:18:22 PM 33.9880 45.1460 149° Southeast 455 524 39,000  Level FlightAware
Wed 03:19:07 PM 33.9050 45.2040 150° Southeast 455 524 39,000  Level FlightAware
Wed 03:19:47 PM 33.8370 45.2530 149° Southeast 454 522 39,000  Level FlightAware
Wed 03:20:27 PM 33.7750 45.2980 149° Southeast 454 522 39,000  Level FlightAware
Wed 03:21:07 PM 33.7140 45.3420 149° Southeast 454 522 39,000  Level FlightAware
Wed 03:21:47 PM 33.6530 45.3860 149° Southeast 454 522 39,000  Level FlightAware
Wed 03:22:37 PM 33.5770 45.4410 149° Southeast 454 522 39,000  Level FlightAware
Wed 03:23:17 PM 33.5150 45.4850 149° Southeast 454 522 39,000  Level FlightAware
Wed 03:23:57 PM 33.4540 45.5290 149° Southeast 454 522 39,000  Level FlightAware
Wed 03:24:37 PM 33.3930 45.5740 148° Southeast 454 522 39,000  Level FlightAware
Wed 03:25:17 PM 33.3320 45.6180 149° Southeast 454 522 39,000  Level FlightAware
Wed 03:26:07 PM 33.2550 45.6730 149° Southeast 454 522 39,000  Level FlightAware
Wed 03:26:47 PM 33.1940 45.7170 149° Southeast 454 522 39,000  Level FlightAware
Wed 03:27:27 PM 33.1330 45.7600 149° Southeast 454 522 39,000  Level FlightAware
Wed 03:28:07 PM 33.0720 45.8040 149° Southeast 454 522 39,000  Level FlightAware
Wed 03:28:47 PM 33.0100 45.8480 149° Southeast 454 522 39,000  Level FlightAware
Wed 03:31:00 PM 32.7660 45.9907 154° Southeast  Level Estimated
Wed 03:32:00 PM 32.6559 46.0548 154° Southeast  Level Estimated
Wed 03:33:00 PM 32.5457 46.1187 154° Southeast  Level Estimated
Wed 03:34:00 PM 32.4356 46.1825 154° Southeast  Level Estimated
Wed 03:35:00 PM 32.3254 46.2462 154° Southeast  Level Estimated
Wed 03:36:00 PM 32.2151 46.3096 154° Southeast  Level Estimated
Wed 03:37:00 PM 32.1048 46.3730 154° Southeast  Level Estimated
Wed 03:38:00 PM 31.9945 46.4361 154° Southeast  Level Estimated
Wed 03:39:00 PM 31.8842 46.4992 154° Southeast  Level Estimated
Wed 03:40:00 PM 31.7738 46.5620 154° Southeast  Level Estimated
Wed 03:41:00 PM 31.6634 46.6248 154° Southeast  Level Estimated
Wed 03:41:52 PM 31.5090 46.9450 154° Southeast 458 527 39,000  Level FlightAware
Wed 03:42:32 PM 31.4540 47.0000 140° Southeast 458 527 39,000  Level FlightAware
Wed 03:43:12 PM 31.3990 47.0540 140° Southeast 458 527 39,000  Level FlightAware
Wed 03:43:52 PM 31.3430 47.1080 141° Southeast 458 527 39,000  Level FlightAware
Wed 03:44:32 PM 31.2880 47.1620 140° Southeast 458 527 39,000  Level FlightAware
Wed 03:45:22 PM 31.2190 47.2300 140° Southeast 458 527 39,000  Level FlightAware
Wed 03:46:02 PM 31.1640 47.2840 140° Southeast 458 527 39,000  Level FlightAware
Wed 03:46:42 PM 31.1090 47.3380 140° Southeast 458 527 39,000  Level FlightAware
Wed 03:47:22 PM 31.0540 47.3920 140° Southeast 458 527 39,000 -6,300 Level FlightAware
Wed 03:48:22 PM 30.8900 47.5410 142° Southeast 402 463 28,500 -6,857 Descending FlightAware
Wed 03:49:07 PM 30.8220 47.6050 141° Southeast 397 457 27,000 -2,040 Descending FlightAware
Wed 03:50:02 PM 30.7460 47.6780 140° Southeast 395 455 25,100 -1,560 Descending FlightAware
Wed 03:50:47 PM 30.6880 47.7340 140° Southeast 392 451 24,400 -1,667 Descending FlightAware
Wed 03:51:32 PM 30.6230 47.7940 142° Southeast 373 429 22,600 -2,147 Descending FlightAware
Wed 03:52:22 PM 30.5540 47.8560 142° Southeast 361 415 21,000 -2,480 Descending FlightAware
Wed 03:52:47 PM 30.5180 47.8670 165° South 360 414 19,500 -3,375 Descending FlightAware
Wed 03:53:42 PM 30.4240 47.8810 173° South 358 412 16,500 -2,618 Descending FlightAware
Wed 03:54:37 PM 30.3370 47.8950 172° South 348 400 14,700 -3,000 Descending FlightAware
Wed 03:55:22 PM 30.2720 47.9050 172° South 339 390 11,500 -2,600 Descending FlightAware
Wed 03:56:07 PM 30.2010 47.9160 172° South 310 357 10,800 -540 Descending FlightAware
Wed 03:57:02 PM 30.1280 47.9280 172° South 291 335 10,600 -126 Descending FlightAware
Wed 03:57:42 PM 30.0820 47.9350 172° South 291 335 10,600  Level FlightAware
Wed 03:58:22 PM 30.0370 47.9420 172° South 291 335 10,600 -1,516 Level FlightAware
Wed 03:59:17 PM 29.9550 47.9540 173° South 269 310 8,200 -2,000 Descending FlightAware
Wed 03:59:37 PM 29.9370 47.9570 172° South 269 310 8,100 -150 Descending FlightAware
Wed 03:59:57 PM 29.9080 47.9620 171° South 273 314 8,100  Level FlightAware
Wed 04:00:17 PM 29.8880 47.9650 173° South 271 312 8,100 120 Level FlightAware
Wed 04:00:47 PM 29.8450 47.9720 172° South 271 312 8,200  Climbing FlightAware
Wed 04:01:12 PM 29.8130 47.9760 174° South 269 310 8,100 -545 Descending FlightAware
Wed 04:01:42 PM 29.7760 47.9690 189° South 266 306 7,700 -933 Descending FlightAware
Wed 04:01:57 PM 29.7540 47.9640 191° South 265 305 7,400 -1,200 Descending FlightAware
Wed 04:02:17 PM 29.7310 47.9590 191° South 263 303 7,000 -982 Descending FlightAware
Wed 04:02:52 PM 29.6930 47.9510 190° South 265 305 6,500 -982 Descending FlightAware
Wed 04:03:12 PM 29.6640 47.9440 192° South 265 305 6,100 -764 Descending FlightAware
Wed 04:03:47 PM 29.6220 47.9350 191° South 250 288 5,800 -480 Descending FlightAware
Wed 04:04:02 PM 29.6140 47.9330 192° South 245 282 5,700 -150 Descending FlightAware
Wed 04:04:27 PM 29.5870 47.9270 191° South 245 282 5,700 -857 Level FlightAware
Wed 04:05:12 PM 29.5400 47.9170 190° South 229 264 4,700 -900 Descending FlightAware
Wed 04:05:47 PM 29.5060 47.9100 190° South 229 264 4,500 -1,015 Descending FlightAware
Wed 04:06:17 PM 29.4760 47.9030 191° South 232 267 3,600 -1,200 Descending FlightAware
Wed 04:06:47 PM 29.4470 47.8970 190° South 225 259 3,300 -1,029 Descending FlightAware
Wed 04:06:52 PM 29.4340 47.8940 191° South 222 255 3,000 -933 Descending FlightAware
Wed 04:07:32 PM 29.3960 47.9010 171° South 193 222 2,600 -300 Descending FlightAware
Wed 04:08:12 PM 29.3670 47.9160 156° South 169 194 2,600  Level FlightAware
Wed 04:08:37 PM 29.3500 47.9250 155° Southeast 151 174 2,600 -514 Level FlightAware
Wed 04:09:22 PM 29.3200 47.9410 155° Southeast 153 176 2,000 -771 Descending FlightAware
Wed 04:09:47 PM 29.3070 47.9490 152° Southeast 145 167 1,700 -360 Descending FlightAware
Wed 04:10:12 PM 29.2930 47.9560 156° South 145 167 1,700  Level FlightAware
Wed 04:12:00 PM 29.2266 47.9689 170° South  Level Estimated
Wed 04:13:00 PM 29.2266 47.9689 210° Southwest  Level Estimated
Wed 04:14:00 PM 29.2266 47.9689 210° Southwest  Level Estimated
Wed 04:15:00 PM 29.2266 47.9689 210° Southwest  Level Estimated
Wed 04:16:00 PM 29.2266 47.9689 210° Southwest  Level Estimated
Wed 04:17:00 PM 29.2266 47.9689 210° Southwest  Level Estimated
Wed 04:18:00 PM 29.2266 47.9689 210° Southwest  Level Estimated
Wed 04:19:00 PM 29.2266 47.9689 210° Southwest  Level Estimated

Login

Don't have an account? Register now (free) for customized features, flight alerts, and more!